Time;durP1;ratioP1;P1;durP2;ratioP2;P2;SDS_P1;SDS_P2;PMS_P1;PMS_P2;Temp;Humidity;BMP_temperature;BMP_pressure;BME280_temperature;BME280_humidity;BME280_pressure;Samples;Min_cycle;Max_cycle;Signal;HPM_P1;HPM_P2
2022/07/07 00:01:58;;;;;;;8.50;3.22;;;;;;;;;;5000803;28;20022;-76
2022/07/07 00:04:24;;;;;;;8.07;3.30;;;;;;;;;;5003807;28;20033;-73
2022/07/07 00:06:50;;;;;;;10.27;3.60;;;;;;;;;;5002304;28;20033;-73
2022/07/07 00:09:17;;;;;;;5.95;3.22;;;;;;;;;;5004942;28;20033;-74
2022/07/07 00:11:43;;;;;;;7.65;3.35;;;;;;;;;;5004239;28;20038;-73
2022/07/07 00:14:09;;;;;;;6.22;3.42;;;;;;;;;;4998228;28;20022;-74
2022/07/07 00:16:37;;;;;;;9.02;3.33;;;;;;;;;;5011632;28;20034;-75
2022/07/07 00:19:03;;;;;;;7.10;3.40;;;;;;;;;;5009831;28;20029;-74
2022/07/07 00:21:31;;;;;;;6.13;3.10;;;;;;;;;;5007254;28;20193;-74
2022/07/07 00:23:57;;;;;;;6.03;2.85;;;;;;;;;;5001319;28;20030;-75
2022/07/07 00:26:23;;;;;;;6.18;2.83;;;;;;;;;;4997769;28;20026;-74
2022/07/07 00:28:50;;;;;;;5.10;3.00;;;;;;;;;;5003644;28;20034;-75
2022/07/07 00:31:16;;;;;;;7.65;3.25;;;;;;;;;;5008774;28;20034;-74
2022/07/07 00:33:43;;;;;;;7.82;3.10;;;;;;;;;;5000173;28;20028;-73
2022/07/07 00:36:10;;;;;;;5.47;2.92;;;;;;;;;;5008356;28;20061;-73
2022/07/07 00:38:36;;;;;;;5.55;2.67;;;;;;;;;;5002119;28;20030;-73
2022/07/07 00:41:02;;;;;;;8.70;2.70;;;;;;;;;;5007616;28;20030;-74
2022/07/07 00:43:35;;;;;;;6.85;2.78;;;;;;;;;;5003283;28;20034;-73
2022/07/07 00:46:02;;;;;;;4.80;3.05;;;;;;;;;;5003140;28;20032;-73
2022/07/07 00:48:28;;;;;;;6.82;2.53;;;;;;;;;;5000006;28;20033;-78
2022/07/07 00:50:54;;;;;;;7.25;3.15;;;;;;;;;;4995645;28;20052;-74
2022/07/07 00:53:20;;;;;;;7.10;2.83;;;;;;;;;;4999819;28;20022;-73
2022/07/07 00:55:46;;;;;;;3.58;2.33;;;;;;;;;;4993048;28;20018;-74
2022/07/07 00:58:13;;;;;;;5.22;2.72;;;;;;;;;;5000942;28;20049;-73
2022/07/07 01:00:39;;;;;;;8.65;3.22;;;;;;;;;;4998122;28;20525;-75
2022/07/07 01:03:05;;;;;;;5.55;2.80;;;;;;;;;;4997368;28;20053;-78
2022/07/07 01:05:32;;;;;;;7.78;3.08;;;;;;;;;;4999101;28;20136;-73
2022/07/07 01:08:00;;;;;;;5.25;3.00;;;;;;;;;;5006129;28;20052;-75
2022/07/07 01:10:26;;;;;;;9.25;2.90;;;;;;;;;;4993572;28;20124;-74
2022/07/07 01:12:52;;;;;;;8.00;3.13;;;;;;;;;;5002038;28;20563;-76
2022/07/07 01:15:18;;;;;;;6.82;3.03;;;;;;;;;;4992690;28;20034;-75
2022/07/07 01:17:44;;;;;;;6.40;3.35;;;;;;;;;;4995128;28;20560;-74
2022/07/07 01:20:13;;;;;;;12.43;3.90;;;;;;;;;;4998881;28;20389;-74
2022/07/07 01:22:40;;;;;;;4.65;3.15;;;;;;;;;;4991498;28;20030;-73
2022/07/07 01:25:06;;;;;;;6.95;3.08;;;;;;;;;;4998558;28;20080;-72
2022/07/07 01:27:33;;;;;;;8.40;3.38;;;;;;;;;;4993301;28;20037;-73
2022/07/07 01:29:59;;;;;;;6.45;3.10;;;;;;;;;;5002367;28;20069;-74
2022/07/07 01:32:26;;;;;;;10.48;3.30;;;;;;;;;;5006677;28;20518;-73
2022/07/07 01:34:52;;;;;;;6.60;2.92;;;;;;;;;;4998459;28;20046;-73
2022/07/07 01:37:20;;;;;;;5.15;2.90;;;;;;;;;;5003178;28;20063;-76
2022/07/07 01:39:47;;;;;;;6.65;3.10;;;;;;;;;;4998972;28;20033;-73
2022/07/07 01:42:13;;;;;;;7.88;2.92;;;;;;;;;;4995132;28;20077;-72
2022/07/07 01:44:40;;;;;;;7.22;2.88;;;;;;;;;;5002417;28;20025;-74
2022/07/07 01:47:06;;;;;;;8.40;3.03;;;;;;;;;;4995068;28;20545;-73
2022/07/07 01:49:33;;;;;;;6.82;3.08;;;;;;;;;;5000637;28;20029;-74
2022/07/07 01:52:00;;;;;;;10.45;3.40;;;;;;;;;;4996132;28;20042;-73
2022/07/07 01:54:29;;;;;;;7.10;3.05;;;;;;;;;;5006005;28;20030;-73
2022/07/07 01:56:55;;;;;;;7.35;2.88;;;;;;;;;;5001768;28;20026;-73
2022/07/07 01:59:21;;;;;;;6.78;3.17;;;;;;;;;;5009428;28;20049;-73
2022/07/07 02:01:48;;;;;;;5.68;2.75;;;;;;;;;;5000670;28;20502;-73
2022/07/07 02:04:14;;;;;;;7.30;2.97;;;;;;;;;;4998601;28;20478;-73
2022/07/07 02:06:40;;;;;;;7.80;3.30;;;;;;;;;;5002864;28;20549;-73
2022/07/07 02:09:07;;;;;;;7.07;3.20;;;;;;;;;;4997781;28;20797;-73
2022/07/07 02:11:34;;;;;;;5.88;2.83;;;;;;;;;;5001577;28;20087;-74
2022/07/07 02:14:01;;;;;;;5.63;2.95;;;;;;;;;;5002349;28;20140;-73
2022/07/07 02:16:27;;;;;;;5.88;3.17;;;;;;;;;;4998642;28;20040;-75
2022/07/07 02:18:54;;;;;;;7.05;3.13;;;;;;;;;;4995736;28;20029;-74
2022/07/07 02:21:21;;;;;;;6.75;3.22;;;;;;;;;;5004331;28;20025;-74
2022/07/07 02:23:48;;;;;;;12.45;3.40;;;;;;;;;;5003316;28;20741;-75
2022/07/07 02:26:14;;;;;;;7.80;3.22;;;;;;;;;;5004271;28;20025;-74
2022/07/07 02:28:41;;;;;;;8.57;3.22;;;;;;;;;;5008711;28;20075;-74
2022/07/07 02:31:08;;;;;;;6.20;3.30;;;;;;;;;;5003776;28;20553;-74
2022/07/07 02:33:34;;;;;;;6.32;2.95;;;;;;;;;;4997962;28;20022;-74
2022/07/07 02:36:00;;;;;;;8.15;3.25;;;;;;;;;;5004396;28;20034;-74
2022/07/07 02:38:27;;;;;;;6.82;3.47;;;;;;;;;;5000489;28;20030;-74
2022/07/07 02:40:53;;;;;;;7.15;4.05;;;;;;;;;;5000335;28;20026;-74
2022/07/07 02:43:20;;;;;;;13.52;3.40;;;;;;;;;;5000138;28;20022;-74
2022/07/07 02:45:47;;;;;;;8.95;3.33;;;;;;;;;;4997115;28;20038;-74
2022/07/07 02:48:14;;;;;;;8.90;3.47;;;;;;;;;;5003645;28;20033;-74
2022/07/07 02:50:40;;;;;;;8.90;3.55;;;;;;;;;;4997214;28;20079;-74
2022/07/07 02:53:07;;;;;;;7.20;3.22;;;;;;;;;;5000656;28;20800;-74
2022/07/07 02:55:33;;;;;;;8.40;3.60;;;;;;;;;;4995192;28;20851;-77
2022/07/07 02:58:00;;;;;;;5.95;3.28;;;;;;;;;;4998785;28;20437;-74
2022/07/07 03:00:27;;;;;;;11.30;3.60;;;;;;;;;;5001558;28;20046;-74
2022/07/07 03:02:54;;;;;;;9.27;3.70;;;;;;;;;;5003125;28;20044;-74
2022/07/07 03:05:20;;;;;;;8.77;3.47;;;;;;;;;;4999044;28;20079;-74
2022/07/07 03:07:46;;;;;;;8.98;3.55;;;;;;;;;;4995849;28;20037;-74
2022/07/07 03:10:12;;;;;;;11.43;3.78;;;;;;;;;;4997828;28;20033;-74
2022/07/07 03:12:39;;;;;;;9.18;4.43;;;;;;;;;;4993686;28;20120;-75
2022/07/07 03:15:06;;;;;;;7.65;3.70;;;;;;;;;;4995880;28;20165;-74
2022/07/07 03:17:32;;;;;;;11.30;3.50;;;;;;;;;;4993562;28;20033;-74
2022/07/07 03:19:58;;;;;;;18.92;3.90;;;;;;;;;;4993798;28;20026;-74
2022/07/07 03:22:24;;;;;;;9.52;3.20;;;;;;;;;;4998744;28;20025;-74
2022/07/07 03:24:50;;;;;;;9.18;4.22;;;;;;;;;;4999456;28;20040;-74
2022/07/07 03:27:16;;;;;;;8.73;3.20;;;;;;;;;;4999985;28;20037;-74
2022/07/07 03:29:42;;;;;;;8.60;3.60;;;;;;;;;;5001908;28;20018;-74
2022/07/07 03:32:09;;;;;;;6.35;3.47;;;;;;;;;;5000992;28;20100;-74
2022/07/07 03:34:36;;;;;;;7.05;3.55;;;;;;;;;;5000820;28;20033;-74
2022/07/07 03:37:02;;;;;;;12.48;3.90;;;;;;;;;;5000635;28;20041;-74
2022/07/07 03:39:28;;;;;;;8.02;3.38;;;;;;;;;;5001391;28;20101;-74
2022/07/07 03:41:54;;;;;;;11.35;4.25;;;;;;;;;;5001534;28;20092;-74
2022/07/07 03:44:21;;;;;;;10.88;3.58;;;;;;;;;;5001079;28;20901;-74
2022/07/07 03:46:47;;;;;;;7.30;3.40;;;;;;;;;;5001257;28;20034;-75
2022/07/07 03:49:13;;;;;;;15.15;3.97;;;;;;;;;;4998089;28;20034;-74
2022/07/07 03:51:39;;;;;;;10.93;4.35;;;;;;;;;;4999057;28;20037;-74
2022/07/07 03:54:05;;;;;;;7.45;3.92;;;;;;;;;;4999229;28;20040;-74
2022/07/07 03:56:31;;;;;;;7.90;4.00;;;;;;;;;;4997032;28;20029;-74
2022/07/07 03:58:57;;;;;;;6.70;3.40;;;;;;;;;;4998714;28;20038;-74
2022/07/07 04:01:24;;;;;;;11.85;4.10;;;;;;;;;;4996548;28;20034;-74
2022/07/07 04:03:50;;;;;;;11.05;3.50;;;;;;;;;;4999704;28;20087;-74
2022/07/07 04:06:16;;;;;;;12.52;4.35;;;;;;;;;;4999245;28;20137;-74
2022/07/07 04:08:42;;;;;;;11.32;4.40;;;;;;;;;;4998963;28;20028;-73
2022/07/07 04:11:08;;;;;;;9.60;3.78;;;;;;;;;;4999199;28;20026;-76
2022/07/07 04:13:34;;;;;;;11.23;4.03;;;;;;;;;;4996567;28;20058;-74
2022/07/07 04:16:01;;;;;;;10.93;3.65;;;;;;;;;;4999059;28;20608;-74
2022/07/07 04:18:27;;;;;;;8.07;4.15;;;;;;;;;;4995386;28;20049;-74
2022/07/07 04:20:53;;;;;;;9.55;3.42;;;;;;;;;;4993222;28;20454;-74
2022/07/07 04:23:19;;;;;;;11.52;3.58;;;;;;;;;;4994649;28;20037;-74
2022/07/07 04:25:45;;;;;;;12.57;3.10;;;;;;;;;;4998932;28;20446;-74
2022/07/07 04:28:11;;;;;;;11.13;3.83;;;;;;;;;;4998998;28;20103;-74
2022/07/07 04:30:37;;;;;;;12.18;3.55;;;;;;;;;;4996996;28;20038;-74
2022/07/07 04:33:04;;;;;;;21.95;4.28;;;;;;;;;;4998713;28;20041;-74
2022/07/07 04:35:30;;;;;;;17.80;4.20;;;;;;;;;;4998623;28;20041;-74
2022/07/07 04:37:56;;;;;;;10.55;3.63;;;;;;;;;;4998558;28;20820;-74
2022/07/07 04:40:22;;;;;;;6.15;3.30;;;;;;;;;;4998743;28;20542;-74
2022/07/07 04:42:48;;;;;;;11.63;3.65;;;;;;;;;;4995425;28;20061;-74
2022/07/07 04:45:15;;;;;;;9.82;3.40;;;;;;;;;;4998679;28;20038;-75
2022/07/07 04:47:41;;;;;;;11.10;4.07;;;;;;;;;;4999204;28;20049;-73
2022/07/07 04:50:11;;;;;;;8.55;3.97;;;;;;;;;;4996138;28;20033;-74
2022/07/07 04:52:37;;;;;;;10.23;4.25;;;;;;;;;;4998692;28;20044;-74
2022/07/07 04:55:04;;;;;;;10.07;3.70;;;;;;;;;;4998371;28;20026;-74
2022/07/07 04:57:30;;;;;;;13.57;4.05;;;;;;;;;;5001547;28;20095;-74
2022/07/07 04:59:56;;;;;;;11.55;5.05;;;;;;;;;;5001664;28;20115;-74
2022/07/07 05:02:22;;;;;;;10.93;4.35;;;;;;;;;;5000378;28;20494;-74
2022/07/07 05:04:49;;;;;;;18.38;5.60;;;;;;;;;;5001678;28;20124;-73
2022/07/07 05:07:15;;;;;;;11.27;5.00;;;;;;;;;;5001451;28;20104;-74
2022/07/07 05:09:42;;;;;;;13.82;4.95;;;;;;;;;;5002009;28;20018;-73
2022/07/07 05:12:08;;;;;;;29.45;6.10;;;;;;;;;;5001946;28;20037;-73
2022/07/07 05:14:34;;;;;;;13.25;6.07;;;;;;;;;;4999919;28;20265;-73
2022/07/07 05:17:00;;;;;;;13.07;5.13;;;;;;;;;;5000223;28;20660;-73
2022/07/07 05:19:27;;;;;;;15.27;5.13;;;;;;;;;;4995355;28;20379;-74
2022/07/07 05:21:53;;;;;;;16.77;6.07;;;;;;;;;;5000669;28;20127;-74
2022/07/07 05:24:19;;;;;;;13.68;5.32;;;;;;;;;;5001671;28;20091;-74
2022/07/07 05:26:46;;;;;;;7.40;4.32;;;;;;;;;;5000941;28;20034;-73
2022/07/07 05:29:12;;;;;;;10.27;4.53;;;;;;;;;;4999753;28;20034;-73
2022/07/07 05:31:38;;;;;;;14.27;5.03;;;;;;;;;;5001015;28;20394;-73
2022/07/07 05:34:04;;;;;;;14.85;5.07;;;;;;;;;;5000866;28;20474;-74
2022/07/07 05:36:32;;;;;;;15.50;4.82;;;;;;;;;;5000053;28;20042;-75
2022/07/07 05:38:58;;;;;;;10.60;5.40;;;;;;;;;;4997972;28;20037;-74
2022/07/07 05:41:24;;;;;;;11.52;5.50;;;;;;;;;;4999679;28;20030;-74
2022/07/07 05:43:50;;;;;;;12.40;4.90;;;;;;;;;;4997328;28;20528;-75
2022/07/07 05:46:17;;;;;;;12.88;5.28;;;;;;;;;;5000159;28;20042;-74
2022/07/07 05:48:43;;;;;;;20.83;5.85;;;;;;;;;;4998413;28;20038;-74
2022/07/07 05:51:09;;;;;;;7.32;4.68;;;;;;;;;;5000199;28;20030;-74
2022/07/07 05:53:36;;;;;;;17.55;4.97;;;;;;;;;;4992463;28;20022;-74
2022/07/07 05:56:03;;;;;;;13.40;4.55;;;;;;;;;;4995685;28;20038;-74
2022/07/07 05:58:29;;;;;;;9.95;4.40;;;;;;;;;;4993275;28;20029;-74
2022/07/07 06:00:55;;;;;;;17.35;5.90;;;;;;;;;;4998724;28;20088;-74
2022/07/07 06:03:21;;;;;;;11.23;5.28;;;;;;;;;;4997961;28;20029;-75
2022/07/07 06:05:48;;;;;;;13.57;5.93;;;;;;;;;;5000245;28;20060;-73
2022/07/07 06:08:14;;;;;;;13.55;6.72;;;;;;;;;;5000602;28;20080;-74
2022/07/07 06:10:40;;;;;;;10.65;5.57;;;;;;;;;;5000959;28;20536;-73
2022/07/07 06:13:07;;;;;;;12.80;5.85;;;;;;;;;;5000417;28;20040;-73
2022/07/07 06:15:33;;;;;;;13.80;5.68;;;;;;;;;;5000351;28;20030;-74
2022/07/07 06:18:05;;;;;;;10.93;5.05;;;;;;;;;;4996784;28;20022;-74
2022/07/07 06:20:31;;;;;;;17.48;5.32;;;;;;;;;;4988540;28;20046;-73
2022/07/07 06:22:58;;;;;;;18.27;5.55;;;;;;;;;;4997748;28;20033;-74
2022/07/07 06:25:26;;;;;;;18.70;5.95;;;;;;;;;;5000192;28;20026;-73
2022/07/07 06:27:52;;;;;;;10.00;4.05;;;;;;;;;;5000961;28;20435;-74
2022/07/07 06:30:18;;;;;;;8.88;4.60;;;;;;;;;;5000143;28;20117;-73
2022/07/07 06:32:45;;;;;;;13.88;4.90;;;;;;;;;;4998566;28;20033;-73
2022/07/07 06:35:12;;;;;;;12.48;4.88;;;;;;;;;;4999842;28;20032;-73
2022/07/07 06:37:38;;;;;;;16.13;5.40;;;;;;;;;;4999430;28;20679;-74
2022/07/07 06:40:04;;;;;;;11.00;4.70;;;;;;;;;;4999833;28;20030;-73
2022/07/07 06:42:31;;;;;;;12.38;5.07;;;;;;;;;;4996707;28;20034;-73
2022/07/07 06:44:57;;;;;;;7.85;4.68;;;;;;;;;;5000105;28;20041;-74
2022/07/07 06:47:24;;;;;;;8.70;3.80;;;;;;;;;;4999872;28;20026;-74
2022/07/07 06:49:50;;;;;;;11.95;4.78;;;;;;;;;;5000374;28;20124;-74
2022/07/07 06:52:16;;;;;;;13.15;4.38;;;;;;;;;;4998769;28;20042;-73
2022/07/07 06:54:43;;;;;;;11.38;4.18;;;;;;;;;;4999522;28;20026;-74
2022/07/07 06:57:09;;;;;;;6.78;4.00;;;;;;;;;;4998663;28;20084;-75
2022/07/07 06:59:36;;;;;;;6.28;3.55;;;;;;;;;;4999540;28;20050;-73
2022/07/07 07:02:02;;;;;;;14.15;3.67;;;;;;;;;;4993503;28;20041;-74
2022/07/07 07:04:28;;;;;;;11.45;3.63;;;;;;;;;;4999479;28;20037;-74
2022/07/07 07:06:55;;;;;;;7.43;3.78;;;;;;;;;;4999374;28;20026;-74
2022/07/07 07:09:21;;;;;;;7.03;3.75;;;;;;;;;;4999378;28;20034;-74
2022/07/07 07:11:49;;;;;;;11.50;4.13;;;;;;;;;;4999396;28;20089;-73
2022/07/07 07:14:16;;;;;;;11.27;5.07;;;;;;;;;;4998609;28;20032;-74
2022/07/07 07:16:42;;;;;;;10.32;4.20;;;;;;;;;;4998870;28;20057;-74
2022/07/07 07:19:08;;;;;;;9.15;3.92;;;;;;;;;;5000732;28;20737;-74
2022/07/07 07:21:34;;;;;;;7.45;3.90;;;;;;;;;;5001355;28;20525;-74
2022/07/07 07:24:00;;;;;;;8.45;3.67;;;;;;;;;;4997982;28;20434;-75
2022/07/07 07:26:26;;;;;;;10.27;3.30;;;;;;;;;;4998177;28;20033;-75
2022/07/07 07:28:53;;;;;;;10.65;4.28;;;;;;;;;;4989401;28;20413;-75
2022/07/07 07:31:19;;;;;;;8.13;4.03;;;;;;;;;;5002194;28;20052;-75
2022/07/07 07:33:47;;;;;;;6.63;4.07;;;;;;;;;;5001928;28;20025;-75
2022/07/07 07:36:13;;;;;;;8.38;4.25;;;;;;;;;;4999139;28;20827;-74
2022/07/07 07:38:40;;;;;;;10.48;4.15;;;;;;;;;;5002262;28;20092;-75
2022/07/07 07:41:07;;;;;;;12.57;8.07;;;;;;;;;;5001784;28;20033;-75
2022/07/07 07:43:33;;;;;;;15.52;6.10;;;;;;;;;;5000543;28;20026;-75
2022/07/07 07:46:00;;;;;;;9.15;3.97;;;;;;;;;;5000405;28;20018;-75
2022/07/07 07:48:26;;;;;;;9.45;4.00;;;;;;;;;;5001333;28;20018;-75
2022/07/07 07:50:52;;;;;;;11.90;4.55;;;;;;;;;;5001708;28;20038;-75
2022/07/07 07:53:18;;;;;;;8.38;3.67;;;;;;;;;;5001750;28;20056;-75
2022/07/07 07:55:44;;;;;;;8.35;4.07;;;;;;;;;;5001431;28;20018;-74
2022/07/07 07:58:10;;;;;;;7.90;3.83;;;;;;;;;;5000242;28;20040;-73
2022/07/07 08:00:37;;;;;;;10.05;4.38;;;;;;;;;;4996862;28;20052;-76
2022/07/07 08:03:03;;;;;;;10.23;3.33;;;;;;;;;;4995697;28;20033;-76
2022/07/07 08:05:30;;;;;;;6.90;3.53;;;;;;;;;;4994651;28;20080;-75
2022/07/07 08:07:57;;;;;;;11.80;4.05;;;;;;;;;;5000587;28;20040;-75
2022/07/07 08:10:23;;;;;;;10.00;5.43;;;;;;;;;;5000819;28;20092;-75
2022/07/07 08:12:49;;;;;;;11.05;4.90;;;;;;;;;;4999567;28;20033;-75
2022/07/07 08:15:16;;;;;;;7.97;3.53;;;;;;;;;;5000380;28;20033;-75
2022/07/07 08:17:42;;;;;;;13.32;3.67;;;;;;;;;;4999800;28;20034;-75
2022/07/07 08:20:09;;;;;;;9.18;3.70;;;;;;;;;;4992100;28;20491;-75
2022/07/07 08:22:35;;;;;;;7.13;4.20;;;;;;;;;;4997864;28;20562;-75
2022/07/07 08:25:01;;;;;;;10.18;3.72;;;;;;;;;;4998544;28;20437;-75
2022/07/07 08:27:28;;;;;;;11.43;3.80;;;;;;;;;;5006848;28;20025;-75
2022/07/07 08:29:54;;;;;;;16.65;4.05;;;;;;;;;;4991115;28;20034;-75
2022/07/07 08:32:20;;;;;;;9.50;4.10;;;;;;;;;;5002935;28;20038;-76
2022/07/07 08:34:46;;;;;;;11.65;3.90;;;;;;;;;;5000849;28;20040;-74
2022/07/07 08:37:12;;;;;;;8.73;3.85;;;;;;;;;;5001075;28;20075;-74
2022/07/07 08:39:39;;;;;;;12.98;3.83;;;;;;;;;;5003984;28;20021;-74
2022/07/07 08:42:05;;;;;;;10.05;4.07;;;;;;;;;;5004212;28;20121;-74
2022/07/07 08:44:32;;;;;;;9.90;4.22;;;;;;;;;;5001983;28;20057;-74
2022/07/07 08:46:58;;;;;;;9.77;3.67;;;;;;;;;;5003399;28;20033;-74
2022/07/07 08:49:26;;;;;;;10.20;3.65;;;;;;;;;;5004219;28;20028;-74
2022/07/07 08:51:53;;;;;;;9.32;3.95;;;;;;;;;;4999050;28;20639;-73
2022/07/07 08:54:19;;;;;;;11.65;3.70;;;;;;;;;;4994719;28;20669;-74
2022/07/07 08:56:45;;;;;;;12.48;3.85;;;;;;;;;;5001020;28;20528;-74
2022/07/07 08:59:15;;;;;;;7.68;4.30;;;;;;;;;;5003324;28;20049;-74
2022/07/07 09:01:52;;;;;;;7.87;3.43;;;;;;;;;;5001464;28;20092;-74
2022/07/07 09:04:18;;;;;;;9.95;3.40;;;;;;;;;;5003836;28;20421;-74
2022/07/07 09:06:55;;;;;;;7.50;3.78;;;;;;;;;;4995512;28;20052;-74
2022/07/07 09:09:30;;;;;;;9.07;3.60;;;;;;;;;;5000828;28;20041;-75
2022/07/07 09:12:00;;;;;;;9.32;3.13;;;;;;;;;;4998192;28;20033;-74
2022/07/07 09:14:34;;;;;;;8.30;3.47;;;;;;;;;;5000007;28;20390;-73
2022/07/07 09:17:00;;;;;;;12.07;3.40;;;;;;;;;;4999667;28;20083;-74
2022/07/07 09:19:26;;;;;;;8.52;3.40;;;;;;;;;;4993227;28;20015;-73
2022/07/07 09:21:52;;;;;;;7.88;3.35;;;;;;;;;;4997466;28;20061;-73
2022/07/07 09:24:19;;;;;;;8.85;4.07;;;;;;;;;;4994671;28;20026;-74
2022/07/07 09:26:47;;;;;;;10.73;5.25;;;;;;;;;;4996120;28;20034;-72
2022/07/07 09:29:14;;;;;;;17.75;6.65;;;;;;;;;;4997342;28;20026;-73
2022/07/07 09:31:59;;;;;;;11.13;3.58;;;;;;;;;;4996097;28;20113;-74
2022/07/07 09:34:33;;;;;;;12.13;3.20;;;;;;;;;;4997276;28;20018;-74
2022/07/07 09:39:46;;;;;;;12.55;3.83;;;;;;;;;;4992720;28;20045;-73
2022/07/07 09:42:18;;;;;;;9.73;3.05;;;;;;;;;;4997828;28;20018;-74
2022/07/07 09:44:45;;;;;;;7.00;3.22;;;;;;;;;;4996530;28;20030;-75
2022/07/07 09:47:12;;;;;;;8.10;4.10;;;;;;;;;;4996425;28;20084;-73
2022/07/07 09:49:42;;;;;;;8.10;3.60;;;;;;;;;;5006979;28;20427;-73
2022/07/07 09:52:15;;;;;;;12.13;4.45;;;;;;;;;;5004257;28;20583;-73
2022/07/07 09:54:46;;;;;;;9.63;3.63;;;;;;;;;;5000009;28;20589;-73
2022/07/07 09:57:12;;;;;;;10.77;3.13;;;;;;;;;;5001446;28;20029;-73
2022/07/07 09:59:41;;;;;;;9.00;3.80;;;;;;;;;;4999894;28;20100;-72
2022/07/07 10:02:08;;;;;;;9.63;3.30;;;;;;;;;;5011884;28;20092;-73
2022/07/07 10:04:35;;;;;;;10.15;3.50;;;;;;;;;;5001361;28;20239;-73
2022/07/07 10:07:02;;;;;;;10.60;3.15;;;;;;;;;;5000734;28;20068;-74
2022/07/07 10:09:28;;;;;;;7.75;3.40;;;;;;;;;;5006149;28;20566;-73
2022/07/07 10:11:55;;;;;;;9.43;3.47;;;;;;;;;;4996533;28;20057;-74
2022/07/07 10:14:25;;;;;;;8.60;3.75;;;;;;;;;;4994680;28;20030;-73
2022/07/07 10:16:52;;;;;;;6.13;3.03;;;;;;;;;;5002087;28;20076;-73
2022/07/07 10:19:19;;;;;;;7.38;3.40;;;;;;;;;;5001684;28;20038;-73
2022/07/07 10:21:47;;;;;;;9.55;3.00;;;;;;;;;;5000824;28;20032;-73
2022/07/07 10:24:14;;;;;;;7.38;3.13;;;;;;;;;;4999564;28;20133;-73
2022/07/07 10:26:42;;;;;;;5.68;2.80;;;;;;;;;;5010672;28;20014;-73
2022/07/07 10:29:09;;;;;;;8.73;3.10;;;;;;;;;;5000162;28;20052;-75
2022/07/07 10:31:36;;;;;;;10.85;3.03;;;;;;;;;;5001395;28;20539;-74
2022/07/07 10:34:07;;;;;;;8.55;3.33;;;;;;;;;;5000976;28;20026;-73
2022/07/07 10:36:48;;;;;;;10.30;3.47;;;;;;;;;;5000768;28;20026;-74
2022/07/07 10:39:14;;;;;;;7.68;3.20;;;;;;;;;;5003614;28;20017;-73
2022/07/07 10:41:41;;;;;;;8.88;3.42;;;;;;;;;;5001063;28;20105;-73
2022/07/07 10:44:09;;;;;;;15.73;3.75;;;;;;;;;;5000123;28;20547;-73
2022/07/07 10:46:37;;;;;;;6.70;2.95;;;;;;;;;;5000235;28;20091;-74
2022/07/07 10:49:11;;;;;;;6.47;2.83;;;;;;;;;;5004058;28;20128;-74
2022/07/07 10:51:58;;;;;;;8.55;3.20;;;;;;;;;;5000133;28;20100;-74
2022/07/07 10:54:37;;;;;;;9.07;3.05;;;;;;;;;;4997410;28;20028;-73
2022/07/07 10:57:05;;;;;;;11.68;3.80;;;;;;;;;;5000922;28;20026;-73
2022/07/07 10:59:51;;;;;;;9.25;3.25;;;;;;;;;;5000225;28;20520;-74
2022/07/07 11:02:17;;;;;;;11.10;3.95;;;;;;;;;;4998312;28;20654;-74
2022/07/07 11:04:44;;;;;;;14.75;3.67;;;;;;;;;;4999958;28;20481;-74
2022/07/07 11:07:11;;;;;;;8.63;3.13;;;;;;;;;;5000602;28;20072;-74
2022/07/07 11:10:00;;;;;;;10.23;3.38;;;;;;;;;;4999835;28;20121;-74
2022/07/07 11:12:45;;;;;;;8.43;3.92;;;;;;;;;;4994348;28;20061;-74
2022/07/07 11:15:20;;;;;;;8.13;3.53;;;;;;;;;;4999882;28;20061;-73
2022/07/07 11:17:48;;;;;;;8.65;3.10;;;;;;;;;;4999707;28;20226;-73
2022/07/07 11:20:15;;;;;;;6.78;3.35;;;;;;;;;;5001333;28;20026;-74
2022/07/07 11:22:49;;;;;;;7.38;3.08;;;;;;;;;;5000781;28;20596;-74
2022/07/07 11:25:18;;;;;;;6.65;3.25;;;;;;;;;;5000589;28;20025;-73
2022/07/07 11:27:44;;;;;;;8.93;3.08;;;;;;;;;;5008246;28;20026;-73
2022/07/07 11:30:11;;;;;;;9.55;3.42;;;;;;;;;;4993346;28;20038;-74
2022/07/07 11:32:38;;;;;;;6.60;3.38;;;;;;;;;;4997250;28;20042;-73
2022/07/07 11:35:07;;;;;;;8.43;3.53;;;;;;;;;;4999863;28;20018;-74
2022/07/07 11:37:34;;;;;;;10.38;3.15;;;;;;;;;;5006312;28;20030;-73
2022/07/07 11:40:01;;;;;;;7.20;3.33;;;;;;;;;;5000095;28;20109;-74
2022/07/07 11:42:34;;;;;;;8.80;3.35;;;;;;;;;;4998955;28;20037;-73
2022/07/07 11:45:00;;;;;;;7.32;3.35;;;;;;;;;;4999718;28;20105;-73
2022/07/07 11:47:26;;;;;;;8.60;3.22;;;;;;;;;;5000144;28;20028;-74
2022/07/07 11:49:53;;;;;;;7.78;3.60;;;;;;;;;;4998500;28;20022;-74
2022/07/07 11:52:21;;;;;;;9.05;3.28;;;;;;;;;;5000141;28;20045;-73
2022/07/07 11:54:48;;;;;;;11.60;3.70;;;;;;;;;;5000331;28;20108;-75
2022/07/07 11:57:34;;;;;;;7.85;3.38;;;;;;;;;;4998930;28;20252;-74
2022/07/07 12:00:13;;;;;;;6.53;3.00;;;;;;;;;;4999369;28;20050;-74
2022/07/07 12:02:39;;;;;;;23.20;4.15;;;;;;;;;;5000650;28;20164;-74
2022/07/07 12:05:06;;;;;;;7.85;2.90;;;;;;;;;;5003235;28;20048;-73
2022/07/07 12:07:33;;;;;;;11.15;3.08;;;;;;;;;;5011812;28;20140;-74
2022/07/07 12:09:59;;;;;;;8.45;3.33;;;;;;;;;;5003528;28;20046;-73
2022/07/07 12:12:25;;;;;;;7.00;3.35;;;;;;;;;;5004685;28;20034;-73
2022/07/07 12:14:51;;;;;;;9.80;3.78;;;;;;;;;;5004753;28;20021;-73
2022/07/07 12:17:34;;;;;;;10.60;3.35;;;;;;;;;;5004771;28;20030;-72
2022/07/07 12:20:00;;;;;;;9.60;2.83;;;;;;;;;;5003197;28;20038;-73
2022/07/07 12:22:33;;;;;;;14.50;3.92;;;;;;;;;;4998010;28;20088;-73
2022/07/07 12:25:00;;;;;;;5.50;2.70;;;;;;;;;;5003855;28;20483;-73
2022/07/07 12:27:26;;;;;;;9.60;3.20;;;;;;;;;;5004727;28;20049;-74
2022/07/07 12:29:59;;;;;;;12.10;2.97;;;;;;;;;;5003015;28;20026;-74
2022/07/07 12:32:26;;;;;;;15.43;3.58;;;;;;;;;;5003836;28;20040;-74
2022/07/07 12:34:52;;;;;;;11.25;3.53;;;;;;;;;;5004934;28;20045;-73
2022/07/07 12:37:18;;;;;;;12.57;3.55;;;;;;;;;;5004480;28;20026;-74
2022/07/07 12:39:44;;;;;;;14.93;4.03;;;;;;;;;;5004164;28;20492;-74
2022/07/07 12:42:10;;;;;;;8.75;3.20;;;;;;;;;;5002774;28;20072;-73
2022/07/07 12:44:37;;;;;;;13.73;4.03;;;;;;;;;;5004290;28;20029;-74
2022/07/07 12:47:03;;;;;;;11.40;3.92;;;;;;;;;;5004769;28;20026;-73
2022/07/07 12:49:29;;;;;;;17.75;3.70;;;;;;;;;;5004137;28;20041;-73
2022/07/07 12:51:56;;;;;;;14.02;3.13;;;;;;;;;;5003906;28;20037;-73
2022/07/07 12:54:23;;;;;;;12.32;4.00;;;;;;;;;;5003142;28;20437;-73
2022/07/07 12:56:58;;;;;;;9.25;3.72;;;;;;;;;;5001392;28;20033;-73
2022/07/07 12:59:24;;;;;;;11.88;6.05;;;;;;;;;;5004101;28;20408;-74
2022/07/07 13:01:54;;;;;;;13.85;5.03;;;;;;;;;;5003530;28;20510;-73
2022/07/07 13:04:21;;;;;;;14.23;4.72;;;;;;;;;;5004059;28;20024;-73
2022/07/07 13:06:49;;;;;;;6.97;4.38;;;;;;;;;;5002471;28;20052;-73
2022/07/07 13:09:15;;;;;;;11.32;4.13;;;;;;;;;;4992225;28;20025;-73
2022/07/07 13:11:42;;;;;;;13.55;5.00;;;;;;;;;;4986784;28;20037;-73
2022/07/07 13:14:08;;;;;;;8.57;3.78;;;;;;;;;;4993588;28;20018;-73
2022/07/07 13:16:34;;;;;;;7.70;3.65;;;;;;;;;;4996662;28;20098;-75
2022/07/07 13:19:00;;;;;;;12.98;4.68;;;;;;;;;;5003395;28;20153;-73
2022/07/07 13:21:27;;;;;;;13.65;4.97;;;;;;;;;;5001292;28;20545;-73
2022/07/07 13:23:53;;;;;;;11.30;3.70;;;;;;;;;;5002972;28;20113;-73
2022/07/07 13:26:19;;;;;;;8.82;3.60;;;;;;;;;;5003128;28;20525;-73
2022/07/07 13:28:46;;;;;;;14.73;4.20;;;;;;;;;;5002929;28;20721;-73
2022/07/07 13:31:13;;;;;;;15.25;3.70;;;;;;;;;;5002419;28;20033;-73
2022/07/07 13:33:40;;;;;;;11.57;4.15;;;;;;;;;;4990084;28;21729;-73
2022/07/07 13:36:06;;;;;;;13.07;3.42;;;;;;;;;;5000179;28;20023;-76
2022/07/07 13:38:33;;;;;;;11.45;3.67;;;;;;;;;;4987120;28;20501;-75
2022/07/07 13:41:00;;;;;;;14.95;3.72;;;;;;;;;;5000273;28;20129;-75
2022/07/07 13:43:26;;;;;;;12.65;3.50;;;;;;;;;;5001403;28;20022;-78
2022/07/07 13:45:52;;;;;;;10.30;3.70;;;;;;;;;;4988664;28;20045;-73
2022/07/07 13:48:19;;;;;;;7.75;3.00;;;;;;;;;;4994268;28;20026;-78
2022/07/07 13:50:46;;;;;;;12.18;3.38;;;;;;;;;;5014342;28;20105;-76
2022/07/07 13:53:13;;;;;;;11.88;4.10;;;;;;;;;;4998766;28;20030;-76
2022/07/07 13:55:40;;;;;;;6.63;3.17;;;;;;;;;;4987225;28;20010;-79
2022/07/07 13:58:06;;;;;;;11.30;3.25;;;;;;;;;;4991040;28;20481;-74
2022/07/07 14:00:33;;;;;;;8.85;3.33;;;;;;;;;;4990045;28;20126;-76
2022/07/07 14:02:59;;;;;;;7.72;3.10;;;;;;;;;;4997493;28;20133;-76
2022/07/07 14:05:26;;;;;;;10.45;3.65;;;;;;;;;;4991000;28;20092;-75
2022/07/07 14:07:52;;;;;;;8.82;3.05;;;;;;;;;;4996792;28;20087;-75
2022/07/07 14:10:19;;;;;;;7.93;2.88;;;;;;;;;;4994741;28;20030;-76
2022/07/07 14:12:45;;;;;;;11.98;3.60;;;;;;;;;;4998406;28;20134;-76
2022/07/07 14:15:11;;;;;;;7.80;3.22;;;;;;;;;;4998299;28;20064;-76
2022/07/07 14:17:38;;;;;;;14.10;3.60;;;;;;;;;;4997763;28;20022;-75
2022/07/07 14:20:05;;;;;;;10.93;3.90;;;;;;;;;;4999542;28;20034;-76
2022/07/07 14:22:32;;;;;;;11.88;3.72;;;;;;;;;;4997572;28;20075;-75
2022/07/07 14:24:58;;;;;;;8.77;3.05;;;;;;;;;;4999581;28;20026;-74
2022/07/07 14:27:26;;;;;;;7.88;3.78;;;;;;;;;;4998674;28;20037;-74
2022/07/07 14:29:53;;;;;;;7.97;3.50;;;;;;;;;;4999312;28;20060;-73
2022/07/07 14:32:19;;;;;;;10.68;3.70;;;;;;;;;;4997781;28;20201;-73
2022/07/07 14:34:45;;;;;;;11.38;3.00;;;;;;;;;;4997078;28;20767;-74
2022/07/07 14:37:11;;;;;;;10.40;3.33;;;;;;;;;;4999709;28;20034;-75
2022/07/07 14:39:37;;;;;;;8.07;3.22;;;;;;;;;;4999030;28;20026;-75
2022/07/07 14:42:04;;;;;;;7.38;3.22;;;;;;;;;;4998832;28;20033;-74